sensor_id;sensor_type;location;lat;lon;timestamp;pressure;altitude;pressure_sealevel;temperature;humidity
14800;BME280;7491;57.750;11.970;2024-01-15T00:02:04;74677.91;;;-142.11;100.00
14800;BME280;7491;57.750;11.970;2024-01-15T00:04:31;74649.41;;;-142.11;100.00
14800;BME280;7491;57.750;11.970;2024-01-15T00:06:57;74655.50;;;-142.11;100.00
14800;BME280;7491;57.750;11.970;2024-01-15T00:09:24;74643.28;;;-142.11;100.00
14800;BME280;7491;57.750;11.970;2024-01-15T00:11:52;74626.97;;;-142.11;100.00
14800;BME280;7491;57.750;11.970;2024-01-15T00:14:19;74624.94;;;-142.11;100.00
14800;BME280;7491;57.750;11.970;2024-01-15T00:16:46;74637.16;;;-142.11;100.00
14800;BME280;7491;57.750;11.970;2024-01-15T00:19:16;74629.00;;;-142.11;100.00
14800;BME280;7491;57.750;11.970;2024-01-15T00:21:42;74631.06;;;-142.11;100.00
14800;BME280;7491;57.750;11.970;2024-01-15T00:24:09;74641.25;;;-142.11;100.00
14800;BME280;7491;57.750;11.970;2024-01-15T00:26:36;74649.41;;;-142.11;100.00
14800;BME280;7491;57.750;11.970;2024-01-15T00:29:02;74647.34;;;-142.11;100.00
14800;BME280;7491;57.750;11.970;2024-01-15T00:31:29;74641.25;;;-142.11;100.00
14800;BME280;7491;57.750;11.970;2024-01-15T00:33:56;74643.28;;;-142.11;100.00
14800;BME280;7491;57.750;11.970;2024-01-15T00:36:25;74643.28;;;-142.11;100.00
14800;BME280;7491;57.750;11.970;2024-01-15T00:38:51;74645.31;;;-142.11;100.00
14800;BME280;7491;57.750;11.970;2024-01-15T00:41:18;74655.50;;;-142.11;100.00
14800;BME280;7491;57.750;11.970;2024-01-15T00:43:45;74647.34;;;-142.11;100.00
14800;BME280;7491;57.750;11.970;2024-01-15T00:46:12;74643.28;;;-142.11;100.00
14800;BME280;7491;57.750;11.970;2024-01-15T00:48:39;74649.41;;;-142.11;100.00
14800;BME280;7491;57.750;11.970;2024-01-15T00:51:05;74651.44;;;-142.11;100.00
14800;BME280;7491;57.750;11.970;2024-01-15T00:53:33;74626.97;;;-142.11;100.00
14800;BME280;7491;57.750;11.970;2024-01-15T00:56:00;74641.25;;;-142.11;100.00
14800;BME280;7491;57.750;11.970;2024-01-15T00:58:28;74653.47;;;-142.11;100.00
14800;BME280;7491;57.750;11.970;2024-01-15T01:00:55;74651.44;;;-142.11;100.00
14800;BME280;7491;57.750;11.970;2024-01-15T01:03:21;74618.84;;;-142.11;100.00
14800;BME280;7491;57.750;11.970;2024-01-15T01:05:48;74584.19;;;-142.11;100.00
14800;BME280;7491;57.750;11.970;2024-01-15T01:08:15;74584.19;;;-142.11;100.00
14800;BME280;7491;57.750;11.970;2024-01-15T01:10:43;74594.38;;;-142.11;100.00
14800;BME280;7491;57.750;11.970;2024-01-15T01:13:10;74584.19;;;-142.11;100.00
14800;BME280;7491;57.750;11.970;2024-01-15T01:15:36;74578.06;;;-142.11;100.00
14800;BME280;7491;57.750;11.970;2024-01-15T01:18:04;74571.97;;;-142.11;100.00
14800;BME280;7491;57.750;11.970;2024-01-15T01:20:31;74574.00;;;-142.11;100.00
14800;BME280;7491;57.750;11.970;2024-01-15T01:22:57;74584.19;;;-142.11;100.00
14800;BME280;7491;57.750;11.970;2024-01-15T01:25:25;74576.03;;;-142.11;100.00
14800;BME280;7491;57.750;11.970;2024-01-15T01:27:53;74582.16;;;-142.11;100.00
14800;BME280;7491;57.750;11.970;2024-01-15T01:30:19;74569.94;;;-142.11;100.00
14800;BME280;7491;57.750;11.970;2024-01-15T01:32:46;74576.03;;;-142.11;100.00
14800;BME280;7491;57.750;11.970;2024-01-15T01:35:12;74582.16;;;-142.11;100.00
14800;BME280;7491;57.750;11.970;2024-01-15T01:37:39;74582.16;;;-142.11;100.00
14800;BME280;7491;57.750;11.970;2024-01-15T01:40:07;74574.00;;;-142.11;100.00
14800;BME280;7491;57.750;11.970;2024-01-15T01:42:34;74584.19;;;-142.11;100.00
14800;BME280;7491;57.750;11.970;2024-01-15T01:45:02;74598.44;;;-142.11;100.00
14800;BME280;7491;57.750;11.970;2024-01-15T01:47:29;74582.16;;;-142.11;100.00
14800;BME280;7491;57.750;11.970;2024-01-15T01:49:56;74578.06;;;-142.11;100.00
14800;BME280;7491;57.750;11.970;2024-01-15T01:52:23;74586.22;;;-142.11;100.00
14800;BME280;7491;57.750;11.970;2024-01-15T01:54:51;74620.88;;;-142.11;100.00
14800;BME280;7491;57.750;11.970;2024-01-15T01:57:18;74696.25;;;-142.11;100.00
14800;BME280;7491;57.750;11.970;2024-01-15T01:59:45;74730.91;;;-142.11;100.00
14800;BME280;7491;57.750;11.970;2024-01-15T02:02:14;74767.56;;;-142.11;100.00
14800;BME280;7491;57.750;11.970;2024-01-15T02:04:42;74804.25;;;-142.11;100.00
14800;BME280;7491;57.750;11.970;2024-01-15T02:07:08;74806.28;;;-142.11;100.00
14800;BME280;7491;57.750;11.970;2024-01-15T02:09:35;74808.31;;;-142.11;100.00
14800;BME280;7491;57.750;11.970;2024-01-15T02:12:02;74828.72;;;-142.11;100.00
14800;BME280;7491;57.750;11.970;2024-01-15T02:14:28;74865.38;;;-142.11;100.00
14800;BME280;7491;57.750;11.970;2024-01-15T02:16:55;74881.69;;;-142.11;100.00
14800;BME280;7491;57.750;11.970;2024-01-15T02:19:24;74902.06;;;-142.11;100.00
14800;BME280;7491;57.750;11.970;2024-01-15T02:21:51;74912.25;;;-142.11;100.00
14800;BME280;7491;57.750;11.970;2024-01-15T02:24:19;74900.03;;;-142.11;100.00
14800;BME280;7491;57.750;11.970;2024-01-15T02:26:45;74916.31;;;-142.11;100.00
14800;BME280;7491;57.750;11.970;2024-01-15T02:29:12;74928.56;;;-142.11;100.00
14800;BME280;7491;57.750;11.970;2024-01-15T02:31:40;74934.66;;;-142.11;100.00
14800;BME280;7491;57.750;11.970;2024-01-15T02:34:06;74920.41;;;-142.11;100.00
14800;BME280;7491;57.750;11.970;2024-01-15T02:36:33;74944.84;;;-142.11;100.00
14800;BME280;7491;57.750;11.970;2024-01-15T02:39:00;74971.34;;;-142.11;100.00
14800;BME280;7491;57.750;11.970;2024-01-15T02:41:28;75008.03;;;-142.11;100.00
14800;BME280;7491;57.750;11.970;2024-01-15T02:43:54;75008.03;;;-142.11;100.00
14800;BME280;7491;57.750;11.970;2024-01-15T02:46:21;75008.03;;;-142.11;100.00
14800;BME280;7491;57.750;11.970;2024-01-15T02:48:47;74989.69;;;-142.11;100.00
14800;BME280;7491;57.750;11.970;2024-01-15T02:51:14;74993.75;;;-142.11;100.00
14800;BME280;7491;57.750;11.970;2024-01-15T02:53:41;75008.03;;;-142.11;100.00
14800;BME280;7491;57.750;11.970;2024-01-15T02:56:07;75034.53;;;-142.11;100.00
14800;BME280;7491;57.750;11.970;2024-01-15T02:58:35;75012.09;;;-142.11;100.00
14800;BME280;7491;57.750;11.970;2024-01-15T03:01:02;75022.28;;;-142.11;100.00
14800;BME280;7491;57.750;11.970;2024-01-15T03:03:29;75026.38;;;-142.11;100.00
14800;BME280;7491;57.750;11.970;2024-01-15T03:05:55;75026.38;;;-142.11;100.00
14800;BME280;7491;57.750;11.970;2024-01-15T03:08:22;75038.59;;;-142.11;100.00
14800;BME280;7491;57.750;11.970;2024-01-15T03:10:49;75042.69;;;-142.11;100.00
14800;BME280;7491;57.750;11.970;2024-01-15T03:13:15;75058.97;;;-142.11;100.00
14800;BME280;7491;57.750;11.970;2024-01-15T03:15:45;75061.00;;;-142.11;100.00
14800;BME280;7491;57.750;11.970;2024-01-15T03:18:12;75069.16;;;-142.11;100.00
14800;BME280;7491;57.750;11.970;2024-01-15T03:20:39;75067.13;;;-142.11;100.00
14800;BME280;7491;57.750;11.970;2024-01-15T03:23:05;75101.78;;;-142.11;100.00
14800;BME280;7491;57.750;11.970;2024-01-15T03:25:32;75116.03;;;-142.11;100.00
14800;BME280;7491;57.750;11.970;2024-01-15T03:27:59;75095.66;;;-142.11;100.00
14800;BME280;7491;57.750;11.970;2024-01-15T03:30:25;75105.84;;;-142.11;100.00
14800;BME280;7491;57.750;11.970;2024-01-15T03:32:53;75107.88;;;-142.11;100.00
14800;BME280;7491;57.750;11.970;2024-01-15T03:35:20;75126.22;;;-142.11;100.00
14800;BME280;7491;57.750;11.970;2024-01-15T03:37:47;75126.22;;;-142.11;100.00
14800;BME280;7491;57.750;11.970;2024-01-15T03:40:14;75173.09;;;-142.11;100.00
14800;BME280;7491;57.750;11.970;2024-01-15T03:42:40;75187.38;;;-142.11;100.00
14800;BME280;7491;57.750;11.970;2024-01-15T03:45:07;75193.47;;;-142.11;100.00
14800;BME280;7491;57.750;11.970;2024-01-15T03:47:34;75177.16;;;-142.11;100.00
14800;BME280;7491;57.750;11.970;2024-01-15T03:50:02;75195.50;;;-142.11;100.00
14800;BME280;7491;57.750;11.970;2024-01-15T03:52:28;75195.50;;;-142.11;100.00
14800;BME280;7491;57.750;11.970;2024-01-15T03:54:55;75213.84;;;-142.11;100.00
14800;BME280;7491;57.750;11.970;2024-01-15T03:57:21;75205.72;;;-142.11;100.00
14800;BME280;7491;57.750;11.970;2024-01-15T03:59:48;75224.03;;;-142.11;100.00
14800;BME280;7491;57.750;11.970;2024-01-15T04:02:14;75254.63;;;-142.11;100.00
14800;BME280;7491;57.750;11.970;2024-01-15T04:04:41;75250.53;;;-142.11;100.00
14800;BME280;7491;57.750;11.970;2024-01-15T04:07:10;75219.97;;;-142.11;100.00
14800;BME280;7491;57.750;11.970;2024-01-15T04:09:36;75264.81;;;-142.11;100.00
14800;BME280;7491;57.750;11.970;2024-01-15T04:12:03;75266.84;;;-142.11;100.00
14800;BME280;7491;57.750;11.970;2024-01-15T04:14:30;75279.06;;;-142.11;100.00
14800;BME280;7491;57.750;11.970;2024-01-15T04:16:56;75289.25;;;-142.11;100.00
14800;BME280;7491;57.750;11.970;2024-01-15T04:19:23;75281.09;;;-142.11;100.00
14800;BME280;7491;57.750;11.970;2024-01-15T04:21:49;75283.16;;;-142.11;100.00
14800;BME280;7491;57.750;11.970;2024-01-15T04:24:17;75299.44;;;-142.11;100.00
14800;BME280;7491;57.750;11.970;2024-01-15T04:26:45;75325.94;;;-142.11;100.00
14800;BME280;7491;57.750;11.970;2024-01-15T04:29:11;75307.59;;;-142.11;100.00
14800;BME280;7491;57.750;11.970;2024-01-15T04:31:38;75340.22;;;-142.11;100.00
14800;BME280;7491;57.750;11.970;2024-01-15T04:34:05;75321.88;;;-142.11;100.00
14800;BME280;7491;57.750;11.970;2024-01-15T04:36:31;75313.72;;;-142.11;100.00
14800;BME280;7491;57.750;11.970;2024-01-15T04:38:58;75358.56;;;-142.11;100.00
14800;BME280;7491;57.750;11.970;2024-01-15T04:41:26;75352.44;;;-142.11;100.00
14800;BME280;7491;57.750;11.970;2024-01-15T04:43:52;75352.44;;;-142.11;100.00
14800;BME280;7491;57.750;11.970;2024-01-15T04:46:19;75334.09;;;-142.11;100.00
14800;BME280;7491;57.750;11.970;2024-01-15T04:48:45;75356.50;;;-142.11;100.00
14800;BME280;7491;57.750;11.970;2024-01-15T04:51:12;75348.38;;;-142.11;100.00
14800;BME280;7491;57.750;11.970;2024-01-15T04:53:39;75321.88;;;-142.11;100.00
14800;BME280;7491;57.750;11.970;2024-01-15T04:56:05;75330.03;;;-142.11;100.00
14800;BME280;7491;57.750;11.970;2024-01-15T04:58:33;75368.75;;;-142.11;100.00
14800;BME280;7491;57.750;11.970;2024-01-15T05:01:00;75374.84;;;-142.11;100.00
14800;BME280;7491;57.750;11.970;2024-01-15T05:03:26;75405.44;;;-142.11;100.00
14800;BME280;7491;57.750;11.970;2024-01-15T05:05:53;75407.47;;;-142.11;100.00
14800;BME280;7491;57.750;11.970;2024-01-15T05:08:20;75383.00;;;-142.11;100.00
14800;BME280;7491;57.750;11.970;2024-01-15T05:10:46;75383.00;;;-142.11;100.00
14800;BME280;7491;57.750;11.970;2024-01-15T05:13:13;75401.34;;;-142.11;100.00
14800;BME280;7491;57.750;11.970;2024-01-15T05:15:41;75411.53;;;-142.11;100.00
14800;BME280;7491;57.750;11.970;2024-01-15T05:18:08;75413.56;;;-142.11;100.00
14800;BME280;7491;57.750;11.970;2024-01-15T05:20:34;75431.91;;;-142.11;100.00
14800;BME280;7491;57.750;11.970;2024-01-15T05:23:01;75446.19;;;-142.11;100.00
14800;BME280;7491;57.750;11.970;2024-01-15T05:25:28;75446.19;;;-142.11;100.00
14800;BME280;7491;57.750;11.970;2024-01-15T05:27:54;75438.03;;;-142.11;100.00
14800;BME280;7491;57.750;11.970;2024-01-15T05:30:21;75486.94;;;-142.11;100.00
14800;BME280;7491;57.750;11.970;2024-01-15T05:32:49;75501.22;;;-142.11;100.00
14800;BME280;7491;57.750;11.970;2024-01-15T05:35:15;75464.53;;;-142.11;100.00
14800;BME280;7491;57.750;11.970;2024-01-15T05:37:44;75480.84;;;-142.11;100.00
14800;BME280;7491;57.750;11.970;2024-01-15T05:40:11;75480.84;;;-142.11;100.00
14800;BME280;7491;57.750;11.970;2024-01-15T05:42:39;75495.09;;;-142.11;100.00
14800;BME280;7491;57.750;11.970;2024-01-15T05:45:06;75489.00;;;-142.11;100.00
14800;BME280;7491;57.750;11.970;2024-01-15T05:47:33;75489.00;;;-142.11;100.00
14800;BME280;7491;57.750;11.970;2024-01-15T05:50:02;75503.25;;;-142.11;100.00
14800;BME280;7491;57.750;11.970;2024-01-15T05:52:28;75525.69;;;-142.11;100.00
14800;BME280;7491;57.750;11.970;2024-01-15T05:54:55;75544.03;;;-142.11;100.00
14800;BME280;7491;57.750;11.970;2024-01-15T05:57:22;75535.88;;;-142.11;100.00
14800;BME280;7491;57.750;11.970;2024-01-15T05:59:49;75548.09;;;-142.11;100.00
14800;BME280;7491;57.750;11.970;2024-01-15T06:02:15;75564.41;;;-142.11;100.00
14800;BME280;7491;57.750;11.970;2024-01-15T06:04:42;75580.69;;;-142.11;100.00
14800;BME280;7491;57.750;11.970;2024-01-15T06:07:10;75582.75;;;-142.11;100.00
14800;BME280;7491;57.750;11.970;2024-01-15T06:09:37;75609.25;;;-142.11;100.00
14800;BME280;7491;57.750;11.970;2024-01-15T06:12:04;75613.31;;;-142.11;100.00
14800;BME280;7491;57.750;11.970;2024-01-15T06:14:31;75623.50;;;-142.11;100.00
14800;BME280;7491;57.750;11.970;2024-01-15T06:16:57;75627.59;;;-142.11;100.00
14800;BME280;7491;57.750;11.970;2024-01-15T06:19:24;75656.13;;;-142.11;100.00
14800;BME280;7491;57.750;11.970;2024-01-15T06:21:50;75641.84;;;-142.11;100.00
14800;BME280;7491;57.750;11.970;2024-01-15T06:24:18;75658.16;;;-142.11;100.00
14800;BME280;7491;57.750;11.970;2024-01-15T06:26:46;75670.38;;;-142.11;100.00
14800;BME280;7491;57.750;11.970;2024-01-15T06:29:12;75690.75;;;-142.11;100.00
14800;BME280;7491;57.750;11.970;2024-01-15T06:31:39;75686.69;;;-142.11;100.00
14800;BME280;7491;57.750;11.970;2024-01-15T06:34:06;75700.97;;;-142.11;100.00
14800;BME280;7491;57.750;11.970;2024-01-15T06:36:32;75719.31;;;-142.11;100.00
14800;BME280;7491;57.750;11.970;2024-01-15T06:38:59;75756.00;;;-142.11;100.00
14800;BME280;7491;57.750;11.970;2024-01-15T06:41:27;75751.91;;;-142.11;100.00
14800;BME280;7491;57.750;11.970;2024-01-15T06:43:53;75743.75;;;-142.11;100.00
14800;BME280;7491;57.750;11.970;2024-01-15T06:46:21;75778.41;;;-142.11;100.00
14800;BME280;7491;57.750;11.970;2024-01-15T06:48:48;75788.59;;;-142.11;100.00
14800;BME280;7491;57.750;11.970;2024-01-15T06:51:15;75815.09;;;-142.11;100.00
14800;BME280;7491;57.750;11.970;2024-01-15T06:53:42;75800.84;;;-142.11;100.00
14800;BME280;7491;57.750;11.970;2024-01-15T06:56:09;75800.84;;;-142.11;100.00
14800;BME280;7491;57.750;11.970;2024-01-15T06:58:37;75815.09;;;-142.11;100.00
14800;BME280;7491;57.750;11.970;2024-01-15T07:01:04;75825.28;;;-142.11;100.00
14800;BME280;7491;57.750;11.970;2024-01-15T07:03:31;75831.41;;;-142.11;100.00
14800;BME280;7491;57.750;11.970;2024-01-15T07:05:58;75847.72;;;-142.11;100.00
14800;BME280;7491;57.750;11.970;2024-01-15T07:08:24;75870.13;;;-142.11;100.00
14800;BME280;7491;57.750;11.970;2024-01-15T07:10:51;75864.03;;;-142.11;100.00
14800;BME280;7491;57.750;11.970;2024-01-15T07:13:18;75890.53;;;-142.11;100.00
14800;BME280;7491;57.750;11.970;2024-01-15T07:15:45;75872.19;;;-142.11;100.00
14800;BME280;7491;57.750;11.970;2024-01-15T07:18:12;75876.25;;;-142.11;100.00
14800;BME280;7491;57.750;11.970;2024-01-15T07:20:39;75882.38;;;-142.11;100.00
14800;BME280;7491;57.750;11.970;2024-01-15T07:23:05;75900.72;;;-142.11;100.00
14800;BME280;7491;57.750;11.970;2024-01-15T07:25:32;75896.63;;;-142.11;100.00
14800;BME280;7491;57.750;11.970;2024-01-15T07:27:59;75912.94;;;-142.11;100.00
14800;BME280;7491;57.750;11.970;2024-01-15T07:30:25;75965.94;;;-142.11;100.00
14800;BME280;7491;57.750;11.970;2024-01-15T07:32:53;75943.50;;;-142.11;100.00
14800;BME280;7491;57.750;11.970;2024-01-15T07:35:20;75967.97;;;-142.11;100.00
14800;BME280;7491;57.750;11.970;2024-01-15T07:37:47;75961.88;;;-142.11;100.00
14800;BME280;7491;57.750;11.970;2024-01-15T07:40:14;75980.22;;;-142.11;100.00
14800;BME280;7491;57.750;11.970;2024-01-15T07:42:41;75982.25;;;-142.11;100.00
14800;BME280;7491;57.750;11.970;2024-01-15T07:45:08;75994.47;;;-142.11;100.00
14800;BME280;7491;57.750;11.970;2024-01-15T07:47:35;75959.81;;;-142.11;100.00
14800;BME280;7491;57.750;11.970;2024-01-15T07:50:04;75992.44;;;-142.11;100.00
14800;BME280;7491;57.750;11.970;2024-01-15T07:52:30;76000.59;;;-142.11;100.00
14800;BME280;7491;57.750;11.970;2024-01-15T07:54:57;76008.75;;;-142.11;100.00
14800;BME280;7491;57.750;11.970;2024-01-15T07:57:25;76025.06;;;-142.11;100.00
14800;BME280;7491;57.750;11.970;2024-01-15T07:59:52;76031.16;;;-142.11;100.00
14800;BME280;7491;57.750;11.970;2024-01-15T08:02:19;76037.28;;;-142.11;100.00
14800;BME280;7491;57.750;11.970;2024-01-15T08:04:45;76039.31;;;-142.11;100.00
14800;BME280;7491;57.750;11.970;2024-01-15T08:07:13;76037.28;;;-142.11;100.00
14800;BME280;7491;57.750;11.970;2024-01-15T08:09:40;76053.59;;;-142.11;100.00
14800;BME280;7491;57.750;11.970;2024-01-15T08:12:07;76071.94;;;-142.11;100.00
14800;BME280;7491;57.750;11.970;2024-01-15T08:14:35;76073.97;;;-142.11;100.00
14800;BME280;7491;57.750;11.970;2024-01-15T08:17:01;76053.59;;;-142.11;100.00
14800;BME280;7491;57.750;11.970;2024-01-15T08:19:28;76073.97;;;-142.11;100.00
14800;BME280;7491;57.750;11.970;2024-01-15T08:21:55;76045.44;;;-142.11;100.00
14800;BME280;7491;57.750;11.970;2024-01-15T08:24:23;76080.09;;;-142.11;100.00
14800;BME280;7491;57.750;11.970;2024-01-15T08:26:49;76055.63;;;-142.11;100.00
14800;BME280;7491;57.750;11.970;2024-01-15T08:29:16;76061.75;;;-142.11;100.00
14800;BME280;7491;57.750;11.970;2024-01-15T08:31:44;76080.09;;;-142.11;100.00
14800;BME280;7491;57.750;11.970;2024-01-15T08:34:10;76078.06;;;-142.11;100.00
14800;BME280;7491;57.750;11.970;2024-01-15T08:36:37;76078.06;;;-142.11;100.00
14800;BME280;7491;57.750;11.970;2024-01-15T08:39:03;76076.00;;;-142.11;100.00
14800;BME280;7491;57.750;11.970;2024-01-15T08:41:33;76065.81;;;-142.11;100.00
14800;BME280;7491;57.750;11.970;2024-01-15T08:44:00;76106.59;;;-142.11;100.00
14800;BME280;7491;57.750;11.970;2024-01-15T08:46:26;76094.34;;;-142.11;100.00
14800;BME280;7491;57.750;11.970;2024-01-15T08:48:53;76086.19;;;-142.11;100.00
14800;BME280;7491;57.750;11.970;2024-01-15T08:51:19;76090.28;;;-142.11;100.00
14800;BME280;7491;57.750;11.970;2024-01-15T08:53:46;76080.09;;;-142.11;100.00
14800;BME280;7491;57.750;11.970;2024-01-15T08:56:13;76063.78;;;-142.11;100.00
14800;BME280;7491;57.750;11.970;2024-01-15T08:58:41;76057.66;;;-142.11;100.00
14800;BME280;7491;57.750;11.970;2024-01-15T09:01:07;76088.25;;;-142.11;100.00
14800;BME280;7491;57.750;11.970;2024-01-15T09:03:34;76080.09;;;-142.11;100.00
14800;BME280;7491;57.750;11.970;2024-01-15T09:06:02;76094.34;;;-142.11;100.00
14800;BME280;7491;57.750;11.970;2024-01-15T09:08:29;76084.16;;;-142.11;100.00
14800;BME280;7491;57.750;11.970;2024-01-15T09:10:55;76069.91;;;-142.11;100.00
14800;BME280;7491;57.750;11.970;2024-01-15T09:13:22;76071.94;;;-142.11;100.00
14800;BME280;7491;57.750;11.970;2024-01-15T09:15:50;76096.41;;;-142.11;100.00
14800;BME280;7491;57.750;11.970;2024-01-15T09:18:16;76106.59;;;-142.11;100.00
14800;BME280;7491;57.750;11.970;2024-01-15T09:20:43;76106.59;;;-142.11;100.00
14800;BME280;7491;57.750;11.970;2024-01-15T09:23:10;76100.47;;;-142.11;100.00
14800;BME280;7491;57.750;11.970;2024-01-15T09:25:37;76108.63;;;-142.11;100.00
14800;BME280;7491;57.750;11.970;2024-01-15T09:28:04;76104.56;;;-142.11;100.00
14800;BME280;7491;57.750;11.970;2024-01-15T09:30:31;76106.59;;;-142.11;100.00
14800;BME280;7491;57.750;11.970;2024-01-15T09:32:58;76106.59;;;-142.11;100.00
14800;BME280;7491;57.750;11.970;2024-01-15T09:35:25;76098.44;;;-142.11;100.00
14800;BME280;7491;57.750;11.970;2024-01-15T09:37:52;76078.06;;;-142.11;100.00
14800;BME280;7491;57.750;11.970;2024-01-15T09:40:20;76096.41;;;-142.11;100.00
14800;BME280;7491;57.750;11.970;2024-01-15T09:42:47;76110.66;;;-142.11;100.00
14800;BME280;7491;57.750;11.970;2024-01-15T09:45:14;76092.31;;;-142.11;100.00
14800;BME280;7491;57.750;11.970;2024-01-15T09:47:41;76096.41;;;-142.11;100.00
14800;BME280;7491;57.750;11.970;2024-01-15T09:50:10;76084.16;;;-142.11;100.00
14800;BME280;7491;57.750;11.970;2024-01-15T09:52:37;76100.47;;;-142.11;100.00
14800;BME280;7491;57.750;11.970;2024-01-15T09:55:06;76076.00;;;-142.11;100.00
14800;BME280;7491;57.750;11.970;2024-01-15T09:57:34;76098.44;;;-142.11;100.00
14800;BME280;7491;57.750;11.970;2024-01-15T10:00:02;76069.91;;;-142.11;100.00
14800;BME280;7491;57.750;11.970;2024-01-15T10:02:30;76076.00;;;-142.11;100.00
14800;BME280;7491;57.750;11.970;2024-01-15T10:04:57;76092.31;;;-142.11;100.00
14800;BME280;7491;57.750;11.970;2024-01-15T10:07:25;76100.47;;;-142.11;100.00
14800;BME280;7491;57.750;11.970;2024-01-15T10:09:53;76114.75;;;-142.11;100.00
14800;BME280;7491;57.750;11.970;2024-01-15T10:12:20;76141.25;;;-142.11;100.00
14800;BME280;7491;57.750;11.970;2024-01-15T10:14:48;76139.22;;;-142.11;100.00
14800;BME280;7491;57.750;11.970;2024-01-15T10:17:15;76141.25;;;-142.11;100.00
14800;BME280;7491;57.750;11.970;2024-01-15T10:19:42;76139.22;;;-142.11;100.00
14800;BME280;7491;57.750;11.970;2024-01-15T10:22:09;76122.91;;;-142.11;100.00
14800;BME280;7491;57.750;11.970;2024-01-15T10:24:37;76139.22;;;-142.11;100.00
14800;BME280;7491;57.750;11.970;2024-01-15T10:27:07;76124.94;;;-142.11;100.00
14800;BME280;7491;57.750;11.970;2024-01-15T10:29:34;76126.97;;;-142.11;100.00
14800;BME280;7491;57.750;11.970;2024-01-15T10:32:01;76141.25;;;-142.11;100.00
14800;BME280;7491;57.750;11.970;2024-01-15T10:34:28;76145.31;;;-142.11;100.00
14800;BME280;7491;57.750;11.970;2024-01-15T10:36:54;76169.78;;;-142.11;100.00
14800;BME280;7491;57.750;11.970;2024-01-15T10:39:21;76167.75;;;-142.11;100.00
14800;BME280;7491;57.750;11.970;2024-01-15T10:41:50;76155.50;;;-142.11;100.00
14800;BME280;7491;57.750;11.970;2024-01-15T10:44:17;76163.66;;;-142.11;100.00
14800;BME280;7491;57.750;11.970;2024-01-15T10:46:45;76182.00;;;-142.11;100.00
14800;BME280;7491;57.750;11.970;2024-01-15T10:49:12;76179.97;;;-142.11;100.00
14800;BME280;7491;57.750;11.970;2024-01-15T10:51:39;76173.84;;;-142.11;100.00
14800;BME280;7491;57.750;11.970;2024-01-15T10:54:09;76200.34;;;-142.11;100.00
14800;BME280;7491;57.750;11.970;2024-01-15T10:56:37;76204.44;;;-142.11;100.00
14800;BME280;7491;57.750;11.970;2024-01-15T10:59:06;76173.84;;;-142.11;100.00
14800;BME280;7491;57.750;11.970;2024-01-15T11:01:36;76161.63;;;-142.11;100.00
14800;BME280;7491;57.750;11.970;2024-01-15T11:04:03;76186.09;;;-142.11;100.00
14800;BME280;7491;57.750;11.970;2024-01-15T11:06:42;76186.09;;;-142.11;100.00
14800;BME280;7491;57.750;11.970;2024-01-15T11:09:09;76224.81;;;-142.11;100.00
14800;BME280;7491;57.750;11.970;2024-01-15T11:11:40;76239.09;;;-142.11;100.00
14800;BME280;7491;57.750;11.970;2024-01-15T11:14:08;76220.75;;;-142.11;100.00
14800;BME280;7491;57.750;11.970;2024-01-15T11:16:54;76241.13;;;-142.11;100.00
14800;BME280;7491;57.750;11.970;2024-01-15T11:19:21;76285.97;;;-142.11;100.00
14800;BME280;7491;57.750;11.970;2024-01-15T11:21:48;76235.00;;;-142.11;100.00
14800;BME280;7491;57.750;11.970;2024-01-15T11:24:36;76290.06;;;-142.11;100.00
14800;BME280;7491;57.750;11.970;2024-01-15T11:27:04;76261.50;;;-142.11;100.00
14800;BME280;7491;57.750;11.970;2024-01-15T11:29:33;76294.13;;;-142.11;100.00
14800;BME280;7491;57.750;11.970;2024-01-15T11:32:01;76298.22;;;-142.11;100.00
14800;BME280;7491;57.750;11.970;2024-01-15T11:37:58;76300.25;;;-142.11;100.00
14800;BME280;7491;57.750;11.970;2024-01-15T11:40:37;76285.97;;;-142.11;100.00
14800;BME280;7491;57.750;11.970;2024-01-15T11:43:04;76283.94;;;-142.11;100.00
14800;BME280;7491;57.750;11.970;2024-01-15T11:45:33;76304.31;;;-142.11;100.00
14800;BME280;7491;57.750;11.970;2024-01-15T11:48:10;76326.75;;;-142.11;100.00
14800;BME280;7491;57.750;11.970;2024-01-15T11:50:40;76322.66;;;-142.11;100.00
14800;BME280;7491;57.750;11.970;2024-01-15T11:53:16;76338.97;;;-142.11;100.00
14800;BME280;7491;57.750;11.970;2024-01-15T11:55:44;76369.56;;;-142.11;100.00
14800;BME280;7491;57.750;11.970;2024-01-15T11:58:14;76324.72;;;-142.11;100.00
14800;BME280;7491;57.750;11.970;2024-01-15T12:00:44;76302.28;;;-142.11;100.00
14800;BME280;7491;57.750;11.970;2024-01-15T12:03:11;76353.25;;;-142.11;100.00
14800;BME280;7491;57.750;11.970;2024-01-15T12:05:38;76357.34;;;-142.11;100.00
14800;BME280;7491;57.750;11.970;2024-01-15T12:08:07;76373.63;;;-142.11;100.00
14800;BME280;7491;57.750;11.970;2024-01-15T12:10:36;76379.75;;;-142.11;100.00
14800;BME280;7491;57.750;11.970;2024-01-15T12:13:05;76387.91;;;-142.11;100.00
14800;BME280;7491;57.750;11.970;2024-01-15T12:15:32;76387.91;;;-142.11;100.00
14800;BME280;7491;57.750;11.970;2024-01-15T12:18:02;76400.16;;;-142.11;100.00
14800;BME280;7491;57.750;11.970;2024-01-15T12:20:29;76410.34;;;-142.11;100.00
14800;BME280;7491;57.750;11.970;2024-01-15T12:22:58;76387.91;;;-142.11;100.00
14800;BME280;7491;57.750;11.970;2024-01-15T12:25:25;76400.16;;;-142.11;100.00
14800;BME280;7491;57.750;11.970;2024-01-15T12:27:53;76414.41;;;-142.11;100.00
14800;BME280;7491;57.750;11.970;2024-01-15T12:30:20;76416.44;;;-142.11;100.00
14800;BME280;7491;57.750;11.970;2024-01-15T12:32:46;76389.94;;;-142.11;100.00
14800;BME280;7491;57.750;11.970;2024-01-15T12:35:14;76400.16;;;-142.11;100.00